createdAt,value
2022-10-08T00:00:10.629Z,17.60
2022-10-08T00:02:43.562Z,17.50
2022-10-08T00:05:12.335Z,17.50
2022-10-08T00:07:42.677Z,17.60
2022-10-08T00:10:11.225Z,17.70
2022-10-08T00:12:39.875Z,17.80
2022-10-08T00:15:09.625Z,18.00
2022-10-08T00:17:38.132Z,18.00
2022-10-08T00:20:09.895Z,18.00
2022-10-08T00:22:38.508Z,18.00
2022-10-08T00:25:08.407Z,17.90
2022-10-08T00:27:36.993Z,17.80
2022-10-08T00:30:05.864Z,17.70
2022-10-08T00:32:34.384Z,17.50
2022-10-08T00:35:02.931Z,17.60
2022-10-08T00:37:32.881Z,17.70
2022-10-08T00:40:01.414Z,17.70
2022-10-08T00:42:30.005Z,17.60
2022-10-08T00:45:00.278Z,17.60
2022-10-08T00:47:41.283Z,17.50
2022-10-08T00:50:15.799Z,17.70
2022-10-08T00:52:49.249Z,19.10
2022-10-08T00:55:21.075Z,17.50
2022-10-08T00:57:50.078Z,17.40
2022-10-08T01:00:21.315Z,17.40
2022-10-08T01:02:50.127Z,17.30
2022-10-08T01:05:23.614Z,17.20
2022-10-08T01:08:00.766Z,17.20
2022-10-08T01:10:39.513Z,17.30
2022-10-08T01:13:20.859Z,17.30
2022-10-08T01:15:57.018Z,17.20
2022-10-08T01:18:35.486Z,17.20
2022-10-08T01:21:12.851Z,17.50
2022-10-08T01:24:10.355Z,17.60
2022-10-08T01:26:57.008Z,17.50
2022-10-08T01:29:31.083Z,17.50
2022-10-08T01:32:03.459Z,17.60
2022-10-08T01:34:37.757Z,17.50
2022-10-08T01:37:11.906Z,17.70
2022-10-08T01:39:42.109Z,17.70
2022-10-08T01:42:12.368Z,17.80
2022-10-08T01:44:47.422Z,17.70
2022-10-08T01:47:19.979Z,17.70
2022-10-08T01:49:51.921Z,17.70
2022-10-08T01:52:25.509Z,17.70
2022-10-08T01:55:00.085Z,17.60
2022-10-08T01:57:30.342Z,17.60
2022-10-08T02:00:03.883Z,17.50
2022-10-08T02:02:41.025Z,17.60
2022-10-08T02:05:10.127Z,17.60
2022-10-08T02:07:41.435Z,17.70
2022-10-08T02:10:13.747Z,17.70
2022-10-08T02:12:44.270Z,17.70
2022-10-08T02:15:17.439Z,17.60
2022-10-08T02:17:57.312Z,17.60
2022-10-08T02:20:33.839Z,17.50
2022-10-08T02:23:08.509Z,17.50
2022-10-08T02:25:41.749Z,17.50
2022-10-08T02:28:18.007Z,17.50
2022-10-08T02:30:53.025Z,17.50
2022-10-08T02:33:28.954Z,17.40
2022-10-08T02:36:00.990Z,17.40
2022-10-08T02:38:35.538Z,17.60
2022-10-08T02:41:06.404Z,17.60
2022-10-08T02:43:39.006Z,17.60
2022-10-08T02:46:15.175Z,17.40
2022-10-08T02:48:46.727Z,17.10
2022-10-08T02:51:18.791Z,17.00
2022-10-08T02:53:48.400Z,17.10
2022-10-08T02:56:24.384Z,17.20
2022-10-08T02:58:53.903Z,17.20
2022-10-08T03:01:30.809Z,17.20
2022-10-08T03:04:04.772Z,17.00
2022-10-08T03:06:34.137Z,17.00
2022-10-08T03:09:06.665Z,16.90
2022-10-08T03:11:36.455Z,17.10
2022-10-08T03:14:09.278Z,17.00
2022-10-08T03:16:40.918Z,16.90
2022-10-08T03:19:12.320Z,16.90
2022-10-08T03:21:42.882Z,16.90
2022-10-08T03:24:13.368Z,17.00
2022-10-08T03:26:42.250Z,17.10
2022-10-08T03:29:11.260Z,16.80
2022-10-08T03:31:41.291Z,16.90
2022-10-08T03:34:10.602Z,16.90
2022-10-08T03:36:39.208Z,16.90
2022-10-08T03:39:07.927Z,16.70
2022-10-08T03:41:36.471Z,16.80
2022-10-08T03:44:08.981Z,16.60
2022-10-08T03:46:37.830Z,16.70
2022-10-08T03:49:07.859Z,16.70
2022-10-08T03:51:36.590Z,16.60
2022-10-08T03:54:05.523Z,16.30
2022-10-08T03:56:34.576Z,16.40
2022-10-08T03:59:03.881Z,16.50
2022-10-08T04:01:32.466Z,16.40
2022-10-08T04:04:01.042Z,16.30
2022-10-08T04:06:31.011Z,16.30
2022-10-08T04:09:01.258Z,16.40
2022-10-08T04:11:30.891Z,16.30
2022-10-08T04:13:59.402Z,16.30
2022-10-08T04:16:27.960Z,15.90
2022-10-08T04:18:56.644Z,15.90
2022-10-08T04:21:25.268Z,15.90
2022-10-08T04:23:55.391Z,16.00
2022-10-08T04:26:23.898Z,16.00
2022-10-08T04:28:52.860Z,15.90
2022-10-08T04:31:23.500Z,15.90
2022-10-08T04:33:55.592Z,15.90
2022-10-08T04:36:25.819Z,16.20
2022-10-08T04:38:55.972Z,16.30
2022-10-08T04:41:25.658Z,16.20
2022-10-08T04:43:55.985Z,16.20
2022-10-08T04:46:24.657Z,16.30
2022-10-08T04:48:54.792Z,16.20
2022-10-08T04:51:24.954Z,16.20
2022-10-08T04:53:56.216Z,16.10
2022-10-08T04:56:27.203Z,16.00
2022-10-08T04:58:56.770Z,16.20
2022-10-08T05:01:26.575Z,16.20
2022-10-08T05:03:57.069Z,16.20
2022-10-08T05:06:28.167Z,16.00
2022-10-08T05:08:59.830Z,15.90
2022-10-08T05:11:28.794Z,16.00
2022-10-08T05:13:58.740Z,16.00
2022-10-08T05:16:27.768Z,15.90
2022-10-08T05:18:56.980Z,15.70
2022-10-08T05:21:27.822Z,15.80
2022-10-08T05:23:59.359Z,15.70
2022-10-08T05:26:56.079Z,15.80
2022-10-08T05:29:19.151Z,15.90
2022-10-08T05:31:47.661Z,15.70
2022-10-08T05:34:16.393Z,15.80
2022-10-08T05:36:45.750Z,15.90
2022-10-08T05:39:16.900Z,15.90
2022-10-08T05:41:45.541Z,15.90
2022-10-08T05:44:14.072Z,16.10
2022-10-08T05:46:42.678Z,16.20
2022-10-08T05:49:18.904Z,16.10
2022-10-08T05:51:47.574Z,15.80
2022-10-08T05:54:18.328Z,15.80
2022-10-08T05:56:46.853Z,15.60
2022-10-08T05:59:18.300Z,15.50
2022-10-08T06:01:46.983Z,15.60
2022-10-08T06:04:15.834Z,15.80
2022-10-08T06:06:44.991Z,15.90
2022-10-08T06:09:15.734Z,16.00
2022-10-08T06:11:46.365Z,16.00
2022-10-08T06:14:17.241Z,16.10
2022-10-08T06:16:46.009Z,16.10
2022-10-08T06:19:14.969Z,16.40
2022-10-08T06:21:43.621Z,16.40
2022-10-08T06:24:13.581Z,16.50
2022-10-08T06:26:43.667Z,16.50
2022-10-08T06:29:16.461Z,16.60
2022-10-08T06:31:45.699Z,16.60
2022-10-08T06:34:14.285Z,16.50
2022-10-08T06:36:42.827Z,16.50
2022-10-08T06:39:14.284Z,16.50
2022-10-08T06:41:43.496Z,16.70
2022-10-08T06:44:19.182Z,16.60
2022-10-08T06:46:47.908Z,16.80
2022-10-08T06:49:16.791Z,16.80
2022-10-08T06:51:45.321Z,16.90
2022-10-08T06:54:13.909Z,17.00
2022-10-08T06:56:42.508Z,17.20
2022-10-08T06:59:11.114Z,17.40
2022-10-08T07:01:41.453Z,17.60
2022-10-08T07:04:13.008Z,17.60
2022-10-08T07:06:41.571Z,17.40
2022-10-08T07:09:10.550Z,17.80
2022-10-08T07:11:40.488Z,17.90
2022-10-08T07:14:09.052Z,18.00
2022-10-08T07:16:37.685Z,18.20
2022-10-08T07:19:07.728Z,18.30
2022-10-08T07:21:36.241Z,18.40
2022-10-08T07:24:05.515Z,18.40
2022-10-08T07:26:35.906Z,18.70
2022-10-08T07:29:07.807Z,18.70
2022-10-08T07:31:38.155Z,18.90
2022-10-08T07:34:09.801Z,18.90
2022-10-08T07:36:39.404Z,19.10
2022-10-08T07:39:10.078Z,19.20
2022-10-08T07:41:38.685Z,19.40
2022-10-08T07:44:08.227Z,19.50
2022-10-08T07:46:38.422Z,19.40
2022-10-08T07:49:08.396Z,19.50
2022-10-08T07:51:37.065Z,19.70
2022-10-08T07:54:07.452Z,19.90
2022-10-08T07:56:37.035Z,19.70
2022-10-08T07:59:07.801Z,19.70
2022-10-08T08:01:36.874Z,19.90
2022-10-08T08:04:08.784Z,20.20
2022-10-08T08:06:41.953Z,20.20
2022-10-08T08:09:11.029Z,19.80
2022-10-08T08:11:40.413Z,19.90
2022-10-08T08:14:09.391Z,20.00
2022-10-08T08:16:38.170Z,20.30
2022-10-08T08:19:08.719Z,20.40
2022-10-08T08:21:39.845Z,20.60
2022-10-08T08:24:09.948Z,20.60
2022-10-08T08:26:40.101Z,20.80
2022-10-08T08:29:11.225Z,20.80
2022-10-08T08:31:43.426Z,20.90
2022-10-08T08:34:15.595Z,21.00
2022-10-08T08:36:46.125Z,21.10
2022-10-08T08:39:18.546Z,21.00
2022-10-08T08:41:56.815Z,21.00
2022-10-08T08:44:29.753Z,21.00
2022-10-08T08:47:02.595Z,21.00
2022-10-08T08:49:38.428Z,21.10
2022-10-08T08:52:10.011Z,21.20
2022-10-08T08:54:38.568Z,21.00
2022-10-08T08:57:23.952Z,21.30
2022-10-08T08:59:55.889Z,21.50
2022-10-08T09:02:27.849Z,21.70
2022-10-08T09:05:02.438Z,21.70
2022-10-08T09:07:42.095Z,21.70
2022-10-08T09:10:17.069Z,21.90
2022-10-08T09:12:46.252Z,21.90
2022-10-08T09:15:20.016Z,22.10
2022-10-08T09:17:53.006Z,22.10
2022-10-08T09:20:25.715Z,22.20
2022-10-08T09:22:57.751Z,22.20
2022-10-08T09:25:28.332Z,22.30
2022-10-08T09:27:58.168Z,22.40
2022-10-08T09:30:38.381Z,22.50
2022-10-08T09:33:19.789Z,22.60
2022-10-08T09:35:51.352Z,22.50
2022-10-08T09:38:25.378Z,22.70
2022-10-08T09:41:06.053Z,22.60
2022-10-08T09:43:36.035Z,22.40
2022-10-08T09:46:11.983Z,22.60
2022-10-08T09:48:41.823Z,22.90
2022-10-08T09:51:17.507Z,22.70
2022-10-08T09:53:49.544Z,23.00
2022-10-08T09:56:27.657Z,22.90
2022-10-08T09:58:59.883Z,23.00
2022-10-08T10:01:31.385Z,23.20
2022-10-08T10:04:02.244Z,23.20
2022-10-08T10:06:35.273Z,23.00
2022-10-08T10:09:22.832Z,23.00
2022-10-08T10:11:55.788Z,23.20
2022-10-08T10:14:27.536Z,23.30
2022-10-08T10:17:01.324Z,23.50
2022-10-08T10:19:34.085Z,23.50
2022-10-08T10:22:07.354Z,23.50
2022-10-08T10:24:53.758Z,23.90
2022-10-08T10:27:30.609Z,24.40
2022-10-08T10:30:07.491Z,24.20
2022-10-08T10:32:39.971Z,24.30
2022-10-08T10:35:15.648Z,24.50
2022-10-08T10:37:52.056Z,24.70
2022-10-08T10:40:36.797Z,24.80
2022-10-08T10:43:20.255Z,24.90
2022-10-08T10:45:53.360Z,25.20
2022-10-08T10:48:22.089Z,25.10
2022-10-08T10:51:16.619Z,25.10
2022-10-08T10:53:57.690Z,25.10
2022-10-08T10:56:29.843Z,24.80
2022-10-08T10:59:16.808Z,25.00
2022-10-08T11:01:54.087Z,25.60
2022-10-08T11:04:32.653Z,25.60
2022-10-08T11:07:14.817Z,26.00
2022-10-08T11:09:51.480Z,25.80
2022-10-08T11:12:31.825Z,25.40
2022-10-08T11:15:09.286Z,25.90
2022-10-08T11:17:48.679Z,25.90
2022-10-08T11:20:39.966Z,26.00
2022-10-08T11:23:16.973Z,26.00
2022-10-08T11:26:15.318Z,26.20
2022-10-08T11:28:50.265Z,26.10
2022-10-08T11:31:30.127Z,26.40
2022-10-08T11:33:59.662Z,26.50
2022-10-08T11:36:36.883Z,26.80
2022-10-08T11:39:15.511Z,26.80
2022-10-08T11:41:53.602Z,27.10
2022-10-08T11:44:22.558Z,26.80
2022-10-08T11:46:51.391Z,27.10
2022-10-08T11:49:49.169Z,26.70
2022-10-08T11:52:18.127Z,27.20
2022-10-08T11:54:55.790Z,27.10
2022-10-08T11:58:05.741Z,27.70
2022-10-08T12:00:43.074Z,27.50
2022-10-08T12:03:24.732Z,27.50
2022-10-08T12:05:55.336Z,27.40
2022-10-08T12:08:49.872Z,27.70
2022-10-08T12:11:52.659Z,26.80
2022-10-08T12:14:49.778Z,27.10
2022-10-08T12:17:18.761Z,27.90
2022-10-08T12:20:22.891Z,27.50
2022-10-08T12:23:38.652Z,27.20
2022-10-08T12:26:12.059Z,27.20
2022-10-08T12:28:50.366Z,27.50
2022-10-08T12:31:31.343Z,27.90
2022-10-08T12:34:05.525Z,28.30
2022-10-08T12:36:56.232Z,28.10
2022-10-08T12:39:36.255Z,28.10
2022-10-08T12:42:14.094Z,28.60
2022-10-08T12:44:59.015Z,28.70
2022-10-08T12:47:40.820Z,29.00
2022-10-08T12:50:30.010Z,28.90
2022-10-08T12:53:03.585Z,29.00
2022-10-08T12:55:38.311Z,28.20
2022-10-08T12:58:07.146Z,28.30
2022-10-08T13:00:36.781Z,29.10
2022-10-08T13:03:13.792Z,29.50
2022-10-08T13:05:44.760Z,29.30
2022-10-08T13:08:28.816Z,29.40
2022-10-08T13:10:57.837Z,29.60
2022-10-08T13:13:41.886Z,29.80
2022-10-08T13:16:12.737Z,30.00
2022-10-08T13:18:44.586Z,28.50
2022-10-08T13:21:36.147Z,28.00
2022-10-08T13:24:26.296Z,28.80
2022-10-08T13:26:56.546Z,29.30
2022-10-08T13:29:30.346Z,29.70
2022-10-08T13:32:01.163Z,29.70
2022-10-08T13:34:34.373Z,29.90
2022-10-08T13:37:06.211Z,29.90
2022-10-08T13:39:38.143Z,30.30
2022-10-08T13:42:09.799Z,30.30
2022-10-08T13:44:41.147Z,30.00
2022-10-08T13:47:14.178Z,29.60
2022-10-08T13:49:45.216Z,29.50
2022-10-08T13:52:16.905Z,29.20
2022-10-08T13:54:46.121Z,29.40
2022-10-08T13:57:15.003Z,29.00
2022-10-08T13:59:43.629Z,28.90
2022-10-08T14:02:14.222Z,28.40
2022-10-08T14:04:44.805Z,29.70
2022-10-08T14:07:21.677Z,29.60
2022-10-08T14:09:50.273Z,29.50
2022-10-08T14:12:23.383Z,28.20
2022-10-08T14:14:51.978Z,28.10
2022-10-08T14:17:20.721Z,29.60
2022-10-08T14:19:51.480Z,28.30
2022-10-08T14:22:20.150Z,27.40
2022-10-08T14:24:49.175Z,28.70
2022-10-08T14:27:19.350Z,30.00
2022-10-08T14:29:48.070Z,28.90
2022-10-08T14:32:16.568Z,29.10
2022-10-08T14:34:45.067Z,28.50
2022-10-08T14:37:15.199Z,27.80
2022-10-08T14:39:43.686Z,27.70
2022-10-08T14:42:12.566Z,28.20
2022-10-08T14:44:41.116Z,29.40
2022-10-08T14:47:09.748Z,30.30
2022-10-08T14:49:38.256Z,30.20
2022-10-08T14:52:06.796Z,30.10
2022-10-08T14:54:36.758Z,30.30
2022-10-08T14:57:05.542Z,30.40
2022-10-08T14:59:39.042Z,30.00
2022-10-08T15:02:10.546Z,30.10
2022-10-08T15:04:39.418Z,29.70
2022-10-08T15:07:08.121Z,29.80
2022-10-08T15:09:40.612Z,28.80
2022-10-08T15:12:09.468Z,29.10
2022-10-08T15:14:38.591Z,29.70
2022-10-08T15:17:07.168Z,29.70
2022-10-08T15:19:35.819Z,30.00
2022-10-08T15:22:04.476Z,29.90
2022-10-08T15:24:33.079Z,29.70
2022-10-08T15:27:03.092Z,29.60
2022-10-08T15:29:31.581Z,29.60
2022-10-08T15:32:00.187Z,29.40
2022-10-08T15:34:28.742Z,29.50
2022-10-08T15:36:57.269Z,29.20
2022-10-08T15:39:27.009Z,28.50
2022-10-08T15:41:56.569Z,27.90
2022-10-08T15:44:29.117Z,27.40
2022-10-08T15:46:59.935Z,27.10
2022-10-08T15:49:31.879Z,26.70
2022-10-08T15:52:01.104Z,26.80
2022-10-08T15:54:30.034Z,26.80
2022-10-08T15:56:58.595Z,26.90
2022-10-08T15:59:28.567Z,27.10
2022-10-08T16:01:57.383Z,26.80
2022-10-08T16:04:26.017Z,26.40
2022-10-08T16:06:54.678Z,25.90
2022-10-08T16:09:23.950Z,25.60
2022-10-08T16:11:52.981Z,25.30
2022-10-08T16:14:23.928Z,25.00
2022-10-08T16:16:54.571Z,24.50
2022-10-08T16:19:25.691Z,24.20
2022-10-08T16:21:55.956Z,23.90
2022-10-08T16:24:25.220Z,23.70
2022-10-08T16:26:54.092Z,23.60
2022-10-08T16:29:22.799Z,23.30
2022-10-08T16:31:51.262Z,23.20
2022-10-08T16:34:23.033Z,23.10
2022-10-08T16:36:52.299Z,23.10
2022-10-08T16:39:24.465Z,23.00
2022-10-08T16:41:53.386Z,22.90
2022-10-08T16:44:22.890Z,22.90
2022-10-08T16:46:52.580Z,22.80
2022-10-08T16:49:26.054Z,22.80
2022-10-08T16:51:56.255Z,22.70
2022-10-08T16:54:25.210Z,22.70
2022-10-08T16:56:53.882Z,22.50
2022-10-08T16:59:24.270Z,22.70
2022-10-08T17:01:55.017Z,22.70
2022-10-08T17:04:27.013Z,22.70
2022-10-08T17:06:55.717Z,22.70
2022-10-08T17:09:24.286Z,22.60
2022-10-08T17:11:53.369Z,22.50
2022-10-08T17:14:21.939Z,22.20
2022-10-08T17:16:52.217Z,23.10
2022-10-08T17:19:20.953Z,22.30
2022-10-08T17:21:50.934Z,22.30
2022-10-08T17:24:19.733Z,22.10
2022-10-08T17:26:50.088Z,22.10
2022-10-08T17:29:18.670Z,21.60
2022-10-08T17:31:47.196Z,21.40
2022-10-08T17:34:15.756Z,21.30
2022-10-08T17:36:44.576Z,21.50
2022-10-08T17:39:15.575Z,21.70
2022-10-08T17:41:45.008Z,21.70
2022-10-08T17:44:14.276Z,21.80
2022-10-08T17:46:46.082Z,21.80
2022-10-08T17:49:16.148Z,21.70
2022-10-08T17:51:45.506Z,21.60
2022-10-08T17:54:18.523Z,21.30
2022-10-08T17:56:47.729Z,21.40
2022-10-08T17:59:17.374Z,21.40
2022-10-08T18:01:46.840Z,21.40
2022-10-08T18:04:17.559Z,21.40
2022-10-08T18:06:48.197Z,21.30
2022-10-08T18:09:19.820Z,21.00
2022-10-08T18:11:51.056Z,20.60
2022-10-08T18:14:20.307Z,20.50
2022-10-08T18:16:49.080Z,20.50
2022-10-08T18:19:17.965Z,20.80
2022-10-08T18:21:46.807Z,20.80
2022-10-08T18:24:15.669Z,21.00
2022-10-08T18:26:45.836Z,20.90
2022-10-08T18:29:17.294Z,21.00
2022-10-08T18:31:46.803Z,21.00
2022-10-08T18:34:17.381Z,21.10
2022-10-08T18:36:47.036Z,21.00
2022-10-08T18:39:16.997Z,21.10
2022-10-08T18:41:50.001Z,21.00
2022-10-08T18:44:20.903Z,20.60
2022-10-08T18:46:49.473Z,20.50
2022-10-08T18:49:20.917Z,20.20
2022-10-08T18:51:51.209Z,19.90
2022-10-08T18:54:19.934Z,20.30
2022-10-08T18:56:49.971Z,20.50
2022-10-08T18:59:18.956Z,20.60
2022-10-08T19:01:49.150Z,20.50
2022-10-08T19:04:19.387Z,20.40
2022-10-08T19:06:50.708Z,20.40
2022-10-08T19:09:19.455Z,20.30
2022-10-08T19:11:51.095Z,20.30
2022-10-08T19:14:21.911Z,20.40
2022-10-08T19:16:51.081Z,20.30
2022-10-08T19:19:21.711Z,20.40
2022-10-08T19:21:51.233Z,20.40
2022-10-08T19:24:22.603Z,20.20
2022-10-08T19:26:53.033Z,20.20
2022-10-08T19:29:23.442Z,20.00
2022-10-08T19:31:52.682Z,20.00
2022-10-08T19:34:22.962Z,19.90
2022-10-08T19:36:54.625Z,19.80
2022-10-08T19:39:26.535Z,19.70
2022-10-08T19:41:56.750Z,19.80
2022-10-08T19:44:25.938Z,19.70
2022-10-08T19:46:54.611Z,19.70
2022-10-08T19:49:23.461Z,19.70
2022-10-08T19:51:53.766Z,19.60
2022-10-08T19:54:22.333Z,19.60
2022-10-08T19:56:50.882Z,19.60
2022-10-08T19:59:20.972Z,19.70
2022-10-08T20:01:49.682Z,19.70
2022-10-08T20:04:18.252Z,19.60
2022-10-08T20:06:46.808Z,19.60
2022-10-08T20:09:15.810Z,19.60
2022-10-08T20:11:46.488Z,19.60
2022-10-08T20:14:16.093Z,19.60
2022-10-08T20:16:46.042Z,19.50
2022-10-08T20:19:17.665Z,19.40
2022-10-08T20:21:46.605Z,19.50
2022-10-08T20:24:15.320Z,19.60
2022-10-08T20:26:44.466Z,19.60
2022-10-08T20:29:14.873Z,19.60
2022-10-08T20:31:46.428Z,19.20
2022-10-08T20:34:17.740Z,19.30
2022-10-08T20:36:47.970Z,19.10
2022-10-08T20:39:17.894Z,19.00
2022-10-08T20:41:47.442Z,19.30
2022-10-08T20:44:16.277Z,19.40
2022-10-08T20:46:46.266Z,19.40
2022-10-08T20:49:15.673Z,19.30
2022-10-08T20:51:45.109Z,19.30
2022-10-08T20:54:15.204Z,19.20
2022-10-08T20:56:44.791Z,19.20
2022-10-08T20:59:16.742Z,19.30
2022-10-08T21:01:47.261Z,19.30
2022-10-08T21:04:15.807Z,19.20
2022-10-08T21:06:45.618Z,19.20
2022-10-08T21:09:15.534Z,19.10
2022-10-08T21:11:45.948Z,19.20
2022-10-08T21:14:17.728Z,19.40
2022-10-08T21:16:48.144Z,19.40
2022-10-08T21:19:19.096Z,19.30
2022-10-08T21:21:47.680Z,19.40
2022-10-08T21:24:16.202Z,19.40
2022-10-08T21:26:44.912Z,19.30
2022-10-08T21:29:15.319Z,19.30
2022-10-08T21:31:44.289Z,19.20
2022-10-08T21:34:14.410Z,19.00
2022-10-08T21:36:44.738Z,19.10
2022-10-08T21:39:17.283Z,19.10
2022-10-08T21:41:46.551Z,19.10
2022-10-08T21:44:15.716Z,19.10
2022-10-08T21:46:46.973Z,19.20
2022-10-08T21:49:20.570Z,19.20
2022-10-08T21:51:49.182Z,19.20
2022-10-08T21:54:18.187Z,19.30
2022-10-08T21:56:47.020Z,19.20
2022-10-08T21:59:17.140Z,19.30
2022-10-08T22:01:47.758Z,19.20
2022-10-08T22:04:19.691Z,19.20
2022-10-08T22:06:49.677Z,19.30
2022-10-08T22:09:20.823Z,19.20
2022-10-08T22:11:50.322Z,19.10
2022-10-08T22:14:19.517Z,19.10
2022-10-08T22:16:48.360Z,19.10
2022-10-08T22:19:19.030Z,19.20
2022-10-08T22:21:47.816Z,19.10
2022-10-08T22:24:16.535Z,19.10
2022-10-08T22:26:46.906Z,19.10
2022-10-08T22:29:15.996Z,19.00
2022-10-08T22:31:44.974Z,19.00
2022-10-08T22:34:14.208Z,19.00
2022-10-08T22:36:45.689Z,19.10
2022-10-08T22:39:14.427Z,19.20
2022-10-08T22:41:43.193Z,19.00
2022-10-08T22:44:11.988Z,19.00
2022-10-08T22:46:41.199Z,19.00
2022-10-08T22:49:12.251Z,19.00
2022-10-08T22:51:41.231Z,19.00
2022-10-08T22:54:11.315Z,19.00
2022-10-08T22:56:39.957Z,19.10
2022-10-08T22:59:08.653Z,19.10
2022-10-08T23:01:37.396Z,19.10
2022-10-08T23:04:06.006Z,19.10
2022-10-08T23:06:36.306Z,19.10
2022-10-08T23:09:07.564Z,19.00
2022-10-08T23:11:37.760Z,19.00
2022-10-08T23:14:07.271Z,18.90
2022-10-08T23:16:36.274Z,18.90
2022-10-08T23:19:07.164Z,18.90
2022-10-08T23:21:36.533Z,18.80
2022-10-08T23:24:05.738Z,18.80
2022-10-08T23:26:34.420Z,18.80
2022-10-08T23:29:05.173Z,18.70
2022-10-08T23:31:36.020Z,18.80
2022-10-08T23:34:05.499Z,18.70
2022-10-08T23:37:44.438Z,19.50
2022-10-08T23:40:12.963Z,18.90
2022-10-08T23:42:41.495Z,18.80
2022-10-08T23:45:10.735Z,18.70
2022-10-08T23:47:39.514Z,18.60
2022-10-08T23:50:09.299Z,18.30
2022-10-08T23:52:37.812Z,18.20
2022-10-08T23:55:08.473Z,18.10
2022-10-08T23:57:37.084Z,18.40
